createdAt,value
2024-03-09T00:00:45.621Z,-2.46
2024-03-09T00:05:49.768Z,-2.50
2024-03-09T00:10:55.121Z,-2.48
2024-03-09T00:16:00.477Z,-2.51
2024-03-09T00:21:07.762Z,-2.57
2024-03-09T00:26:13.232Z,-2.57
2024-03-09T00:31:18.080Z,-2.64
2024-03-09T00:36:22.987Z,-2.96
2024-03-09T00:41:28.507Z,-3.28
2024-03-09T00:46:32.501Z,-3.55
2024-03-09T00:51:36.389Z,-3.69
2024-03-09T00:56:41.705Z,-3.78
2024-03-09T01:01:45.891Z,-3.80
2024-03-09T01:06:50.015Z,-3.76
2024-03-09T01:11:55.478Z,-3.78
2024-03-09T01:17:01.371Z,-3.89
2024-03-09T01:22:07.817Z,-4.03
2024-03-09T01:27:13.295Z,-4.22
2024-03-09T01:32:17.967Z,-4.38
2024-03-09T01:37:23.807Z,-4.50
2024-03-09T01:42:30.672Z,-4.60
2024-03-09T01:47:35.520Z,-4.60
2024-03-09T01:52:40.873Z,-4.66
2024-03-09T01:57:47.376Z,-4.72
2024-03-09T02:02:53.813Z,-4.75
2024-03-09T02:07:57.745Z,-4.74
2024-03-09T02:13:04.006Z,-4.82
2024-03-09T02:18:08.842Z,-4.68
2024-03-09T02:23:13.278Z,-4.64
2024-03-09T02:28:20.152Z,-4.52
2024-03-09T02:33:24.353Z,-4.43
2024-03-09T02:38:28.204Z,-4.32
2024-03-09T02:43:38.236Z,-4.32
2024-03-09T02:48:44.922Z,-4.39
2024-03-09T02:53:48.810Z,-4.37
2024-03-09T02:58:54.083Z,-4.34
2024-03-09T03:04:00.371Z,-4.15
2024-03-09T03:09:13.650Z,-4.03
2024-03-09T03:14:19.571Z,-3.94
2024-03-09T03:19:24.159Z,-3.81
2024-03-09T03:24:28.014Z,-3.71
2024-03-09T03:29:34.272Z,-3.51
2024-03-09T03:34:39.126Z,-3.59
2024-03-09T03:39:42.619Z,-3.61
2024-03-09T03:44:47.859Z,-3.70
2024-03-09T03:49:52.321Z,-3.66
2024-03-09T03:54:57.203Z,-3.62
2024-03-09T04:00:02.151Z,-3.73
2024-03-09T04:05:06.630Z,-3.79
2024-03-09T04:10:15.635Z,-3.94
2024-03-09T04:15:21.075Z,-4.08
2024-03-09T04:20:28.563Z,-4.09
2024-03-09T04:25:34.296Z,-4.16
2024-03-09T04:30:40.312Z,-4.33
2024-03-09T04:35:46.593Z,-4.45
2024-03-09T04:40:51.866Z,-4.56
2024-03-09T04:45:57.430Z,-4.59
2024-03-09T04:51:02.486Z,-4.62
2024-03-09T04:56:07.749Z,-4.49
2024-03-09T05:01:13.169Z,-4.41
2024-03-09T05:06:17.269Z,-4.28
2024-03-09T05:11:21.174Z,-3.86
2024-03-09T05:16:26.724Z,-1.96
2024-03-09T05:21:35.636Z,2.84
2024-03-09T05:26:44.257Z,6.34
2024-03-09T05:31:49.888Z,9.52
2024-03-09T05:36:54.666Z,13.28
2024-03-09T05:41:58.778Z,12.80
2024-03-09T05:47:04.461Z,9.17
2024-03-09T05:52:09.392Z,5.81
2024-03-09T05:57:13.177Z,2.92
2024-03-09T06:02:18.592Z,1.19
2024-03-09T06:07:22.498Z,0.42
2024-03-09T06:12:26.934Z,0.22
2024-03-09T06:17:32.633Z,2.64
2024-03-09T06:22:36.738Z,9.34
2024-03-09T06:27:40.851Z,14.03
2024-03-09T06:32:46.468Z,14.87
2024-03-09T06:37:58.024Z,16.32
2024-03-09T06:43:02.498Z,18.42
2024-03-09T06:48:08.619Z,18.15
2024-03-09T06:53:12.835Z,19.45
2024-03-09T06:58:16.735Z,20.58
2024-03-09T07:03:22.053Z,22.51
2024-03-09T07:08:27.202Z,23.14
2024-03-09T07:13:31.211Z,24.33
2024-03-09T07:18:38.391Z,24.67
2024-03-09T07:23:42.542Z,24.98
2024-03-09T07:28:46.481Z,24.33
2024-03-09T07:33:54.718Z,25.26
2024-03-09T07:38:58.608Z,25.77
2024-03-09T07:44:03.288Z,26.22
2024-03-09T07:49:09.157Z,26.64
2024-03-09T07:54:13.091Z,27.66
2024-03-09T07:59:18.784Z,26.89
2024-03-09T08:04:24.142Z,26.82
2024-03-09T08:09:29.629Z,26.70
2024-03-09T08:14:35.513Z,24.04
2024-03-09T08:19:41.097Z,23.51
2024-03-09T08:24:45.246Z,23.21
2024-03-09T08:29:51.545Z,22.35
2024-03-09T08:34:57.147Z,22.83
2024-03-09T08:40:01.070Z,21.80
2024-03-09T08:45:07.458Z,20.44
2024-03-09T08:50:13.357Z,17.25
2024-03-09T08:55:17.965Z,16.41
2024-03-09T09:00:27.028Z,13.97
2024-03-09T09:05:33.085Z,10.72
2024-03-09T09:10:37.581Z,7.92
2024-03-09T09:15:44.021Z,5.47
2024-03-09T09:20:49.996Z,4.52
2024-03-09T09:25:54.037Z,3.61
2024-03-09T09:30:57.928Z,3.25
2024-03-09T09:36:03.166Z,2.84
2024-03-09T09:41:08.106Z,2.52
2024-03-09T09:46:13.742Z,2.56
2024-03-09T09:51:21.624Z,2.41
2024-03-09T09:56:25.634Z,2.38
2024-03-09T10:01:29.742Z,2.28
2024-03-09T10:06:35.060Z,1.89
2024-03-09T10:11:56.380Z,1.82
2024-03-09T10:17:11.132Z,1.47
2024-03-09T10:22:17.107Z,1.47
2024-03-09T10:27:22.938Z,1.55
2024-03-09T10:32:28.040Z,1.58
2024-03-09T10:37:33.816Z,1.28
2024-03-09T10:42:44.955Z,1.45
2024-03-09T10:47:54.538Z,2.00
2024-03-09T10:53:20.734Z,1.84
2024-03-09T10:58:27.741Z,1.58
2024-03-09T11:03:33.889Z,1.25
2024-03-09T11:08:39.963Z,1.19
2024-03-09T11:13:45.896Z,1.03
2024-03-09T11:18:58.004Z,0.67
2024-03-09T11:24:09.799Z,0.74
2024-03-09T11:29:14.043Z,1.05
2024-03-09T11:34:22.939Z,1.06
2024-03-09T11:39:31.288Z,0.90
2024-03-09T11:44:35.516Z,1.07
2024-03-09T11:49:42.078Z,1.23
2024-03-09T11:54:51.148Z,1.38
2024-03-09T11:59:55.534Z,1.17
2024-03-09T12:04:59.553Z,0.62
2024-03-09T12:10:05.670Z,-0.12
2024-03-09T12:15:11.197Z,-0.59
2024-03-09T12:20:15.819Z,-0.44
2024-03-09T12:25:21.093Z,-0.83
2024-03-09T12:30:25.688Z,-0.92
2024-03-09T12:35:30.415Z,-0.83
2024-03-09T12:40:35.821Z,-0.72
2024-03-09T12:45:41.021Z,-0.47
2024-03-09T12:50:44.928Z,-0.37
2024-03-09T12:55:52.369Z,-0.34
2024-03-09T13:01:13.365Z,-0.46
2024-03-09T13:06:17.285Z,-0.57
2024-03-09T13:11:23.298Z,-0.74
2024-03-09T13:16:27.319Z,-0.57
2024-03-09T13:21:31.446Z,-0.47
2024-03-09T13:26:36.720Z,-0.51
2024-03-09T13:31:40.669Z,-0.78
2024-03-09T13:36:44.820Z,-0.90
2024-03-09T13:41:50.482Z,-0.98
2024-03-09T13:46:54.452Z,-1.14
2024-03-09T13:52:01.159Z,-1.43
2024-03-09T13:57:07.464Z,-1.73
2024-03-09T14:02:14.718Z,-1.70
2024-03-09T14:07:23.083Z,-1.58
2024-03-09T14:12:28.683Z,-1.66
2024-03-09T14:17:33.148Z,-1.58
2024-03-09T14:22:37.062Z,-1.53
2024-03-09T14:27:42.495Z,-1.72
2024-03-09T14:32:48.326Z,-1.89
2024-03-09T14:37:54.998Z,-1.97
2024-03-09T14:43:03.791Z,-2.19
2024-03-09T14:48:10.947Z,-2.30
2024-03-09T14:53:16.108Z,-2.41
2024-03-09T14:58:21.500Z,-2.49
2024-03-09T15:03:33.694Z,-2.69
2024-03-09T15:08:38.781Z,-2.81
2024-03-09T15:14:02.486Z,-2.89
2024-03-09T15:19:06.297Z,-2.97
2024-03-09T15:24:12.563Z,-3.07
2024-03-09T15:29:17.944Z,-3.15
2024-03-09T15:34:21.955Z,-3.24
2024-03-09T15:39:28.178Z,-3.32
2024-03-09T15:44:33.809Z,-3.44
2024-03-09T15:49:37.932Z,-3.50
2024-03-09T15:54:43.539Z,-3.56
2024-03-09T15:59:49.106Z,-3.71
2024-03-09T16:04:53.821Z,-3.85
2024-03-09T16:09:57.923Z,-3.96
2024-03-09T16:15:05.474Z,-4.06
2024-03-09T16:20:10.166Z,-4.15
2024-03-09T16:25:14.399Z,-4.19
2024-03-09T16:30:30.083Z,-4.34
2024-03-09T16:35:34.351Z,-4.31
2024-03-09T16:40:41.312Z,-4.36
2024-03-09T16:45:46.770Z,-4.37
2024-03-09T16:50:51.156Z,-4.54
2024-03-09T16:55:55.260Z,-4.68
2024-03-09T17:01:06.184Z,-4.79
2024-03-09T17:06:11.318Z,-4.88
2024-03-09T17:11:15.936Z,-4.89
2024-03-09T17:16:21.216Z,-4.90
2024-03-09T17:21:25.932Z,-4.74
2024-03-09T17:26:33.910Z,-4.68
2024-03-09T17:31:39.740Z,-4.68
2024-03-09T17:36:44.162Z,-4.64
2024-03-09T17:41:48.148Z,-4.68
2024-03-09T17:46:56.888Z,-4.71
2024-03-09T17:52:00.720Z,-4.70
2024-03-09T17:57:04.713Z,-4.68
2024-03-09T18:02:10.543Z,-4.79
2024-03-09T18:07:14.454Z,-4.79
2024-03-09T18:12:19.028Z,-4.84
2024-03-09T18:17:24.246Z,-4.97
2024-03-09T18:22:28.344Z,-5.05
2024-03-09T18:27:32.807Z,-5.16
2024-03-09T18:32:38.918Z,-5.20
2024-03-09T18:37:45.172Z,-5.21
2024-03-09T18:42:51.604Z,-5.23
2024-03-09T18:47:59.008Z,-5.17
2024-03-09T18:53:03.490Z,-5.09
2024-03-09T18:58:10.136Z,-5.33
2024-03-09T19:03:16.352Z,-5.19
2024-03-09T19:08:23.340Z,-5.21
2024-03-09T19:13:27.231Z,-5.20
2024-03-09T19:18:50.264Z,-5.19
2024-03-09T19:23:54.290Z,-5.21
2024-03-09T19:28:58.230Z,-5.16
2024-03-09T19:34:03.749Z,-5.31
2024-03-09T19:39:10.639Z,-5.33
2024-03-09T19:44:15.420Z,-5.39
2024-03-09T19:49:21.384Z,-5.46
2024-03-09T19:54:25.301Z,-5.47
2024-03-09T19:59:29.288Z,-5.45
2024-03-09T20:04:38.453Z,-5.37
2024-03-09T20:09:43.074Z,-5.26
2024-03-09T20:14:46.995Z,-5.19
2024-03-09T20:19:54.173Z,-5.15
2024-03-09T20:25:00.402Z,-5.11
2024-03-09T20:30:04.310Z,-5.20
2024-03-09T20:35:12.589Z,-5.15
2024-03-09T20:40:19.462Z,-5.16
2024-03-09T20:45:24.718Z,-5.16
2024-03-09T20:50:31.152Z,-5.12
2024-03-09T20:55:35.060Z,-5.13
2024-03-09T21:00:39.442Z,-5.04
2024-03-09T21:05:44.842Z,-5.07
2024-03-09T21:10:51.510Z,-5.13
2024-03-09T21:15:56.385Z,-5.21
2024-03-09T21:21:02.664Z,-5.31
2024-03-09T21:26:06.649Z,-5.37
2024-03-09T21:31:11.001Z,-5.40
2024-03-09T21:36:16.322Z,-5.45
2024-03-09T21:41:20.618Z,-5.54
2024-03-09T21:46:24.965Z,-5.58
2024-03-09T21:51:30.328Z,-5.54
2024-03-09T21:56:34.979Z,-5.51
2024-03-09T22:01:38.617Z,-5.51
2024-03-09T22:06:45.274Z,-5.36
2024-03-09T22:11:49.817Z,-5.32
2024-03-09T22:16:53.774Z,-5.24
2024-03-09T22:21:58.943Z,-5.22
2024-03-09T22:27:02.791Z,-5.13
2024-03-09T22:32:07.063Z,-5.13
2024-03-09T22:37:13.366Z,-5.19
2024-03-09T22:42:17.599Z,-5.30
2024-03-09T22:47:22.162Z,-5.20
2024-03-09T22:52:27.625Z,-5.24
2024-03-09T22:57:31.764Z,-5.28
2024-03-09T23:02:35.654Z,-5.27
2024-03-09T23:07:41.073Z,-5.19
2024-03-09T23:12:45.625Z,-5.10
2024-03-09T23:17:53.509Z,-5.00
2024-03-09T23:23:00.504Z,-4.98
2024-03-09T23:28:08.642Z,-5.09
2024-03-09T23:33:12.521Z,-5.13
2024-03-09T23:38:19.598Z,-5.13
2024-03-09T23:43:23.572Z,-5.03
2024-03-09T23:48:28.246Z,-5.02
2024-03-09T23:53:35.388Z,-5.01
2024-03-09T23:58:40.933Z,-4.99
